Data for 08/02/2006

Time Sea-Level Adjusted Pressure Absolute Pressure Temperature Relative Humidity Dew Point   
(mb) (inHg) (mb) (inHg) (C) (F) (%) (C) (F)
00:05 1019 30.09 848 25.04 13.9 57.1 52 4.2 39.6
00:10 1019 30.09 848 25.04 14.1 57.3 51 4.3 39.7
00:15 1019 30.09 848 25.04 14.2 57.5 51 4.2 39.6
00:20 1019 30.09 848 25.04 14.3 57.7 52 4.7 40.5
00:25 1019 30.09 848 25.04 14.2 57.6 52 4.6 40.3
00:30 1019 30.09 848 25.04 14 57.2 52 4.4 39.9
00:35 1019 30.09 848 25.04 13.9 57 53 4.4 40
00:40 1019 30.09 848 25.04 14.1 57.3 51 4.2 39.6
00:45 1019 30.09 848 25.04 14.2 57.6 52 4.5 40
00:50 1019 30.09 848 25.04 14.2 57.6 52 4.5 40.1
00:55 1019 30.09 849 25.07 14.3 57.7 52 4.6 40.3
01:00 1020 30.12 849 25.07 14.6 58.3 52 5.1 41.1
01:05 1020 30.12 849 25.07 14.7 58.4 53 5.3 41.6
01:10 1020 30.12 849 25.07 14.7 58.5 53 5.3 41.6
01:15 1020 30.12 849 25.07 14.8 58.6 54 5.6 42.1
01:20 1020 30.12 849 25.07 15.1 59.2 55 6.3 43.4
01:25 1020 30.12 849 25.07 15 59.1 57 6.7 44.1
01:30 1020 30.12 849 25.07 14.9 58.9 56 6.3 43.3
01:35 1020 30.12 849 25.07 14.8 58.6 55 6 42.8
01:40 1020 30.12 849 25.07 14.9 58.7 54 5.8 42.4
01:45 1020 30.12 849 25.07 14.4 57.8 59 6.4 43.6
01:50 1020 30.12 849 25.07 14.1 57.3 57 5.7 42.2
01:55 1020 30.12 849 25.07 14.4 57.9 50 4.3 39.8
02:00 1020 30.12 849 25.07 14.4 58 60 6.8 44.2
02:05 1020 30.12 849 25.07 13.8 56.8 61 6.5 43.8
02:10 1020 30.12 849 25.07 13.7 56.7 62 6.7 44
02:15 1020 30.12 849 25.07 13.4 56.1 63 6.6 43.9
02:20 1020 30.12 849 25.07 13.1 55.6 64 6.6 43.9
02:25 1020 30.12 849 25.07 12.9 55.3 66 6.7 44.1
02:30 1020 30.12 849 25.07 12.9 55.2 63 6.1 43
02:35 1020 30.12 849 25.07 13 55.5 64 6.5 43.6
02:40 1020 30.12 849 25.07 13.3 55.9 60 5.8 42.4
02:45 1020 30.12 849 25.07 13.6 56.5 59 5.8 42.4
02:50 1020 30.12 849 25.07 13.8 56.8 59 5.9 42.6
02:55 1020 30.12 849 25.07 13.8 56.8 59 6 42.8
03:00 1020 30.12 849 25.07 13.9 57 58 5.9 42.6
03:05 1020 30.12 849 25.07 13.9 57 59 6.1 43.1
03:10 1020 30.12 849 25.07 13.9 56.9 61 6.4 43.6
03:15 1020 30.12 849 25.07 13.7 56.6 60 6.1 42.9
03:20 1020 30.12 849 25.07 13.8 56.8 57 5.4 41.8
03:25 1020 30.12 849 25.07 13.9 56.9 61 6.6 43.9
03:30 1020 30.12 849 25.07 13.6 56.4 62 6.4 43.5
03:35 1020 30.12 849 25.07 13.5 56.3 57 5.2 41.4
03:40 1020 30.12 849 25.07 13.7 56.7 56 5.2 41.3
03:45 1020 30.12 849 25.07 13.8 56.9 55 5 40.9
03:50 1020 30.12 849 25.07 13.8 56.8 60 6.3 43.3
03:55 1020 30.12 849 25.07 13.4 56.1 61 6.1 42.9
04:00 1020 30.12 849 25.07 13.1 55.6 62 6 42.8
04:05 1020 30.12 849 25.07 12.9 55.2 63 6.1 42.9
04:10 1020 30.12 849 25.07 12.6 54.7 62 5.5 41.9
04:15 1020 30.12 850 25.1 12.7 54.8 62 5.6 42.1
04:20 1020 30.12 850 25.1 12.9 55.2 58 4.9 40.8
04:25 1020 30.12 850 25.1 13.3 56 58 5.3 41.5
04:30 1020 30.12 850 25.1 13.4 56.1 57 5 41
04:35 1020 30.12 850 25.1 13.5 56.2 56 4.9 40.9
04:40 1021 30.15 850 25.1 13.3 56 61 5.9 42.7
04:45 1021 30.15 850 25.1 13.1 55.6 59 5.3 41.5
04:50 1021 30.15 850 25.1 13 55.4 61 5.6 42.1
04:55 1021 30.15 850 25.1 12.7 54.9 63 6 42.8
05:00 1021 30.15 850 25.1 12.3 54.1 68 6.7 44
05:05 1021 30.15 850 25.1 12.2 54 69 6.8 44.2
05:10 1021 30.15 850 25.1 12.1 53.7 70 6.9 44.3
05:15 1021 30.15 850 25.1 11.9 53.5 72 7.1 44.7
05:20 1021 30.15 850 25.1 11.8 53.3 72 6.9 44.5
05:25 1021 30.15 850 25.1 11.8 53.2 73 7.1 44.7
05:30 1021 30.15 850 25.1 11.8 53.2 73 7.1 44.8
05:35 1021 30.15 850 25.1 11.6 52.9 73 6.9 44.5
05:40 1021 30.15 850 25.1 11.5 52.8 72 6.8 44.2
05:45 1021 30.15 850 25.1 11.4 52.5 73 6.7 44.1
05:50 1021 30.15 850 25.1 11 51.7 73 6.3 43.4
05:55 1021 30.15 850 25.1 11 51.8 71 6 42.8
06:00 1021 30.15 850 25.1 11.2 52.1 70 5.9 42.5
06:05 1021 30.15 850 25.1 11.4 52.4 70 6 42.9
06:10 1021 30.15 850 25.1 11.4 52.4 71 6.3 43.4
06:15 1021 30.15 850 25.1 10.7 51.2 75 6.5 43.7
06:20 1021 30.15 850 25.1 10.4 50.7 75 6.1 42.9
06:25 1021 30.15 850 25.1 10.5 50.8 73 5.8 42.4
06:30 1021 30.15 850 25.1 10.7 51.2 72 5.8 42.5
06:35 1021 30.15 850 25.1 10.6 51.1 73 6 42.9
06:40 1021 30.15 850 25.1 10.5 51 73 5.9 42.7
06:45 1021 30.15 850 25.1 10.6 51 73 5.9 42.6
06:50 1021 30.15 851 25.13 10.7 51.3 72 5.9 42.6
06:55 1021 30.15 851 25.13 10.8 51.5 70 5.5 41.9
07:00 1021 30.15 851 25.13 11.2 52.2 68 5.6 42.2
07:05 1022 30.18 851 25.13 11.4 52.6 67 5.6 42.1
07:10 1022 30.18 851 25.13 11.6 52.9 67 5.8 42.5
07:15 1022 30.18 851 25.13 11.8 53.2 66 5.6 42
07:20 1022 30.18 851 25.13 11.9 53.4 67 5.9 42.7
07:25 1022 30.18 851 25.13 11.8 53.2 67 6 42.8
07:30 1022 30.18 851 25.13 11.7 53 66 5.5 42
07:35 1022 30.18 851 25.13 11.8 53.2 67 5.8 42.4
07:40 1022 30.18 851 25.13 11.8 53.3 66 5.7 42.3
07:45 1022 30.18 851 25.13 12 53.6 65 5.6 42.1
07:50 1022 30.18 851 25.13 12.2 53.9 66 6 42.8
07:55 1022 30.18 851 25.13 12.4 54.3 64 5.8 42.4
08:00 1022 30.18 851 25.13 12.7 54.9 63 5.8 42.4
08:05 1022 30.18 851 25.13 13.3 55.9 59 5.6 42.1
08:10 1022 30.18 851 25.13 14 57.3 57 5.8 42.5
08:15 1022 30.18 851 25.13 14.6 58.4 54 5.5 41.9
08:20 1022 30.18 851 25.13 15.2 59.3 53 5.8 42.4
08:25 1022 30.18 851 25.13 15.4 59.6 53 5.9 42.6
08:30 1022 30.18 851 25.13 15.9 60.5 50 5.6 42
08:35 1022 30.18 851 25.13 15.8 60.5 52 6 42.8
08:40 1022 30.18 852 25.16 15.6 60.1 53 6 42.8
08:45 1022 30.18 852 25.16 15.7 60.2 55 6.8 44.2
08:50 1022 30.18 851 25.13 16.2 61.1 53 6.7 44.1
08:55 1022 30.18 852 25.16 16.3 61.4 55 7.2 45
09:00 1022 30.18 852 25.16 16 60.8 54 6.9 44.4
09:05 1022 30.18 852 25.16 16.1 61 55 7.1 44.8
09:10 1022 30.18 852 25.16 16.8 62.2 52 6.8 44.3
09:15 1022 30.18 851 25.13 17.2 63 47 6 42.9
09:20 1022 30.18 851 25.13 17.1 62.7 49 6.3 43.4
09:25 1022 30.18 851 25.13 17.2 63 48 6.1 43
09:30 1022 30.18 851 25.13 16.9 62.4 52 6.9 44.5
09:35 1022 30.18 851 25.13 17.2 62.9 48 6.2 43.1
09:40 1022 30.18 851 25.13 18 64.4 45 6.2 43.1
09:45 1022 30.18 851 25.13 18.5 65.3 44 6.3 43.3
09:50 1022 30.18 851 25.13 18.9 65.9 43 6.1 42.9
09:55 1022 30.18 851 25.13 19.1 66.3 42 5.8 42.5
10:00 1022 30.18 851 25.13 19.2 66.6 40 5.3 41.6
10:05 1022 30.18 851 25.13 19.5 67.2 39 5.4 41.7
10:10 1022 30.18 851 25.13 20 67.9 37 5 41
10:15 1022 30.18 851 25.13 20.1 68.2 35 4.3 39.8
10:20 1022 30.18 851 25.13 19.8 67.6 34 3.5 38.3
10:25 1022 30.18 851 25.13 19.1 66.3 38 4.7 40.5
10:30 1022 30.18 851 25.13 19.6 67.3 38 5 41.1
10:35 1022 30.18 851 25.13 20.2 68.3 37 5.2 41.3
10:40 1022 30.18 851 25.13 20.5 68.9 34 4.4 40
10:45 1022 30.18 851 25.13 20.7 69.3 34 4.5 40.2
10:50 1022 30.18 851 25.13 21 69.8 33 4.3 39.7
10:55 1022 30.18 852 25.16 21 69.8 32 4 39.1
11:00 1022 30.18 852 25.16 20.9 69.6 32 3.9 39
11:05 1022 30.18 851 25.13 20.7 69.2 31 3.2 37.7
11:10 1022 30.18 851 25.13 21.2 70.2 31 3.5 38.2
11:15 1022 30.18 851 25.13 21.6 70.9 29 3.1 37.6
11:20 1022 30.18 851 25.13 21.6 70.8 29 2.8 37.1
11:25 1022 30.18 851 25.13 21.4 70.6 27 2.1 35.7
11:30 1022 30.18 851 25.13 21.5 70.7 29 3 37.5
11:35 1022 30.18 851 25.13 21.5 70.7 29 2.8 37
11:40 1022 30.18 851 25.13 21.9 71.3 27 2.2 36
11:45 1022 30.18 851 25.13 21.5 70.6 28 2.3 36.1
11:50 1022 30.18 851 25.13 21.8 71.3 28 2.9 37.2
11:55 1022 30.18 851 25.13 21.7 71.1 27 2.2 36
12:00 1022 30.18 851 25.13 22 71.5 27 2.2 36
12:05 1022 30.18 851 25.13 21.9 71.4 28 2.6 36.6
12:10 1022 30.18 851 25.13 22.2 71.9 27 2.8 37
12:15 1022 30.18 851 25.13 22.6 72.7 28 3.4 38.2
12:20 1022 30.18 851 25.13 22.8 73 27 2.8 37
12:25 1022 30.18 851 25.13 22.8 73 27 2.9 37.3
12:30 1022 30.18 851 25.13 23.1 73.6 27 3.3 37.9
12:35 1022 30.18 851 25.13 22.6 72.8 27 3 37.3
12:40 1022 30.18 851 25.13 22.4 72.3 27 2.6 36.7
12:45 1022 30.18 851 25.13 22.9 73.3 25 1.8 35.2
12:50 1022 30.18 851 25.13 23.5 74.3 25 2.6 36.7
12:55 1022 30.18 851 25.13 23 73.4 26 2.5 36.5
13:00 1022 30.18 851 25.13 22.7 72.9 25 1.6 34.9
13:05 1022 30.18 851 25.13 23.3 73.9 26 2.8 37
13:10 1022 30.18 851 25.13 23.9 75 23 1.9 35.5
13:15 1022 30.18 851 25.13 22.7 72.9 27 2.7 36.9
13:20 1022 30.18 851 25.13 21.8 71.3 27 2.2 36
13:25 1022 30.18 851 25.13 22.1 71.7 26 1.7 35
13:30 1021 30.15 851 25.13 22.3 72.2 26 2.3 36.1
13:35 1021 30.15 851 25.13 23.4 74.1 25 2.4 36.4
13:40 1021 30.15 851 25.13 23.9 75.1 22 1.3 34.4
13:45 1021 30.15 851 25.13 23.2 73.7 25 2.3 36.1
13:50 1021 30.15 851 25.13 23 73.3 25 1.9 35.5
13:55 1021 30.15 850 25.1 23.6 74.4 24 2 35.6
14:00 1021 30.15 850 25.1 23 73.4 26 2.6 36.7
14:05 1021 30.15 850 25.1 23 73.3 24 1.6 35
14:10 1021 30.15 850 25.1 23.1 73.6 25 2.2 36
14:15 1021 30.15 850 25.1 23.7 74.7 24 2.5 36.5
14:20 1021 30.15 850 25.1 24.6 76.2 24 2.8 37
14:25 1021 30.15 850 25.1 24.8 76.7 23 2.8 37
14:30 1021 30.15 850 25.1 24.9 76.8 24 3.2 37.7
14:35 1021 30.15 850 25.1 24.5 76.2 23 2.4 36.3
14:40 1021 30.15 850 25.1 24.7 76.4 24 2.8 37
14:45 1021 30.15 850 25.1 24.6 76.2 22 1.4 34.5
14:50 1021 30.15 850 25.1 24.2 75.5 22 1.6 34.9
14:55 1021 30.15 850 25.1 24.8 76.6 21 1.3 34.4
15:00 1021 30.15 850 25.1 25.1 77.1 21 1.8 35.2
15:05 1021 30.15 850 25.1 24.7 76.5 21 1.2 34.2
15:10 1021 30.15 850 25.1 24.1 75.4 22 1.3 34.3
15:15 1021 30.15 850 25.1 25 77 21 1.6 34.9
15:20 1021 30.15 850 25.1 25.6 78.1 20 1 33.7
15:25 1021 30.15 850 25.1 26.1 79 20 1.7 35
15:30 1021 30.15 850 25.1 26.1 78.9 20 1.8 35.2
15:35 1020 30.12 850 25.1 25.9 78.6 19 0.7 33.3
15:40 1020 30.12 850 25.1 25.5 77.9 20 1.2 34.2
15:45 1020 30.12 850 25.1 25.3 77.5 21 1.4 34.4
15:50 1020 30.12 850 25.1 25.5 77.8 21 1.5 34.7
15:55 1020 30.12 850 25.1 25.3 77.5 20 1.1 34.1
16:00 1020 30.12 850 25.1 25.6 78.1 18 -0.1 31.8
16:05 1020 30.12 849 25.07 25.5 77.9 19 0.2 32.4
16:10 1020 30.12 849 25.07 25.4 77.8 18 -0.1 31.9
16:15 1020 30.12 849 25.07 25.3 77.6 20 1.3 34.3
16:20 1020 30.12 849 25.07 26.1 78.9 19 1.2 34.1
16:25 1020 30.12 849 25.07 26.1 78.9 19 1.2 34.2
16:30 1020 30.12 849 25.07 26.2 79.2 18 -0 32
16:35 1020 30.12 849 25.07 25.8 78.5 18 0.3 32.5
16:40 1020 30.12 849 25.07 25.5 78 19 0.4 32.7
16:45 1020 30.12 849 25.07 25.2 77.3 20 1 33.8
16:50 1020 30.12 849 25.07 25.5 77.9 19 0.6 33
16:55 1020 30.12 849 25.07 25.4 77.8 19 0.7 33.3
17:00 1020 30.12 849 25.07 24.7 76.5 21 1.1 33.9
17:05 1020 30.12 849 25.07 25.3 77.5 19 0.5 32.8
17:10 1020 30.12 849 25.07 25.8 78.4 19 0.9 33.7
17:15 1020 30.12 849 25.07 25.8 78.4 19 0.4 32.7
17:20 1020 30.12 849 25.07 24.8 76.7 20 0.3 32.6
17:25 1020 30.12 849 25.07 24.5 76.1 20 0 32.1
17:30 1020 30.12 849 25.07 24.5 76.1 21 1.1 34
17:35 1020 30.12 849 25.07 24.8 76.7 20 0.7 33.3
17:40 1020 30.12 849 25.07 24.9 76.8 20 0.8 33.5
17:45 1020 30.12 849 25.07 25 76.9 20 0.4 32.7
17:50 1020 30.12 849 25.07 24.7 76.4 20 0.5 32.8
17:55 1020 30.12 849 25.07 24.7 76.4 20 0.5 33
18:00 1020 30.12 849 25.07 24.4 75.9 21 1.2 34.1
18:05 1020 30.12 849 25.07 25 77 19 -0.2 31.7
18:10 1020 30.12 849 25.07 24.7 76.4 19 -0.3 31.5
18:15 1020 30.12 849 25.07 24.5 76.1 20 0.2 32.3
18:20 1020 30.12 849 25.07 25 77 20 0.5 32.8
18:25 1020 30.12 849 25.07 24.7 76.4 19 -0.6 31
18:30 1020 30.12 849 25.07 24.5 76 19 -0.6 30.8
18:35 1020 30.12 849 25.07 24.2 75.6 19 -0.6 30.9
18:40 1020 30.12 849 25.07 24.7 76.4 17 -1.4 29.5
18:45 1020 30.12 849 25.07 24.4 75.8 18 -1 30.3
18:50 1019 30.09 849 25.07 24.1 75.3 19 -1 30.2
18:55 1019 30.09 849 25.07 24.4 75.9 18 -1.3 29.6
19:00 1019 30.09 849 25.07 24.5 76 16 -2.6 27.3
19:05 1019 30.09 849 25.07 24.1 75.3 19 -0.6 30.9
19:10 1019 30.09 849 25.07 24.2 75.6 19 -0.8 30.6
19:15 1019 30.09 849 25.07 24.4 75.8 17 -1.9 28.6
19:20 1019 30.09 849 25.07 24.3 75.8 18 -1.5 29.2
19:25 1019 30.09 849 25.07 24 75.3 19 -0.5 31.1
19:30 1019 30.09 849 25.07 23.9 75.1 19 -1.2 29.9
19:35 1019 30.09 849 25.07 23.9 75.1 18 -1.6 29.1
19:40 1019 30.09 849 25.07 23.8 74.8 19 -1.1 30.1
19:45 1019 30.09 849 25.07 23.8 74.9 19 -0.8 30.5
19:50 1019 30.09 849 25.07 23.7 74.6 18 -1.5 29.3
19:55 1019 30.09 849 25.07 23.6 74.4 19 -1.4 29.5
20:00 1019 30.09 849 25.07 23.5 74.3 19 -1.2 29.8
20:05 1019 30.09 849 25.07 23.4 74.2 24 2 35.6
20:10 1019 30.09 849 25.07 23.4 74.1 21 -0.3 31.5
20:15 1019 30.09 849 25.07 23.3 73.9 27 3.6 38.5
20:20 1019 30.09 849 25.07 23 73.5 24 1.8 35.2
20:25 1019 30.09 849 25.07 22.6 72.6 25 1.8 35.3
20:30 1019 30.09 849 25.07 22.4 72.4 32 5 41
20:35 1019 30.09 849 25.07 22.5 72.5 24 1.4 34.5
20:40 1019 30.09 849 25.07 22.4 72.2 25 1.7 35
20:45 1019 30.09 849 25.07 22.2 71.9 30 3.8 38.9
20:50 1019 30.09 849 25.07 21.5 70.7 33 4.6 40.2
20:55 1019 30.09 849 25.07 20.2 68.3 37 5.2 41.3
21:00 1019 30.09 849 25.07 19.5 67.1 37 4.6 40.3
21:05 1019 30.09 849 25.07 19.3 66.7 35 3.8 38.8
21:10 1020 30.12 849 25.07 18.8 65.8 39 4.8 40.7
21:15 1020 30.12 849 25.07 18.1 64.5 41 4.7 40.5
21:20 1020 30.12 849 25.07 17.6 63.8 37 2.8 37
21:25 1020 30.12 849 25.07 17.6 63.6 35 2 35.6
21:30 1020 30.12 849 25.07 17.7 63.9 33 1.3 34.3
21:35 1020 30.12 849 25.07 17.8 64 33 1.2 34.2
21:40 1020 30.12 849 25.07 17.9 64.2 32 1.1 33.9
21:45 1020 30.12 849 25.07 18 64.4 32 1 33.7
21:50 1020 30.12 849 25.07 18.1 64.6 32 1.1 33.9
21:55 1020 30.12 849 25.07 18.1 64.7 31 0.9 33.6
22:00 1020 30.12 849 25.07 18.1 64.7 31 0.9 33.6
22:05 1020 30.12 849 25.07 18 64.4 32 1 33.8
22:10 1020 30.12 849 25.07 17.8 64.1 31 0.5 32.9
22:15 1020 30.12 849 25.07 17.8 64 30 0.1 32.1
22:20 1020 30.12 849 25.07 17.9 64.1 30 0.1 32.2
22:25 1020 30.12 849 25.07 17.9 64.2 29 -0.1 31.8
22:30 1020 30.12 849 25.07 17.5 63.5 32 0.6 33.1
22:35 1020 30.12 849 25.07 17.2 63 32 0.7 33.2
22:40 1020 30.12 849 25.07 16.9 62.5 33 0.7 33.3
22:45 1020 30.12 849 25.07 16.9 62.3 33 0.7 33.3
22:50 1020 30.12 849 25.07 16.8 62.3 33 0.5 32.9
22:55 1020 30.12 849 25.07 16.8 62.2 33 0.4 32.7
23:00 1020 30.12 849 25.07 16.6 61.9 33 0.5 32.8
23:05 1020 30.12 849 25.07 16.2 61.2 36 1.1 33.9
23:10 1020 30.12 849 25.07 15.9 60.6 35 0.6 33.1
23:15 1020 30.12 849 25.07 15.9 60.5 35 0.6 33.1
23:20 1020 30.12 849 25.07 15.8 60.5 35 0.6 33
23:25 1020 30.12 849 25.07 15.9 60.7 35 0.8 33.4
23:30 1020 30.12 849 25.07 15.9 60.5 36 0.8 33.5
23:35 1020 30.12 849 25.07 15.7 60.2 37 1.1 34
23:40 1020 30.12 849 25.07 15.7 60.2 41 2.4 36.4
23:45 1020 30.12 849 25.07 15.8 60.5 35 0.6 33
23:50 1020 30.12 849 25.07 15.8 60.4 35 0.4 32.8
23:55 1020 30.12 849 25.07 15.6 60.1 37 0.9 33.7
24:00 1020 30.12 849 25.07 15.3 59.5 38 1.3 34.3